sensor_id;sensor_type;location;lat;lon;timestamp;temperature;humidity
38118;DHT22;23928;47.562;7.508;2023-02-18T00:02:02;10.70;99.90
38118;DHT22;23928;47.562;7.508;2023-02-18T00:04:28;10.70;99.90
38118;DHT22;23928;47.562;7.508;2023-02-18T00:06:54;10.60;99.90
38118;DHT22;23928;47.562;7.508;2023-02-18T00:09:19;10.50;99.90
38118;DHT22;23928;47.562;7.508;2023-02-18T00:11:45;10.60;99.90
38118;DHT22;23928;47.562;7.508;2023-02-18T00:14:12;10.50;99.90
38118;DHT22;23928;47.562;7.508;2023-02-18T00:16:39;10.50;99.90
38118;DHT22;23928;47.562;7.508;2023-02-18T00:19:07;10.60;99.90
38118;DHT22;23928;47.562;7.508;2023-02-18T00:21:34;10.50;99.90
38118;DHT22;23928;47.562;7.508;2023-02-18T00:24:00;10.60;99.90
38118;DHT22;23928;47.562;7.508;2023-02-18T00:26:26;10.50;99.90
38118;DHT22;23928;47.562;7.508;2023-02-18T00:28:52;10.50;99.90
38118;DHT22;23928;47.562;7.508;2023-02-18T00:31:25;10.60;99.90
38118;DHT22;23928;47.562;7.508;2023-02-18T00:33:51;10.70;99.90
38118;DHT22;23928;47.562;7.508;2023-02-18T00:36:18;10.70;99.90
38118;DHT22;23928;47.562;7.508;2023-02-18T00:38:54;10.70;99.90
38118;DHT22;23928;47.562;7.508;2023-02-18T00:41:22;10.70;99.90
38118;DHT22;23928;47.562;7.508;2023-02-18T00:43:48;10.60;99.90
38118;DHT22;23928;47.562;7.508;2023-02-18T00:46:14;10.60;99.90
38118;DHT22;23928;47.562;7.508;2023-02-18T00:48:40;10.50;99.90
38118;DHT22;23928;47.562;7.508;2023-02-18T00:51:06;10.60;99.90
38118;DHT22;23928;47.562;7.508;2023-02-18T00:53:33;10.60;99.90
38118;DHT22;23928;47.562;7.508;2023-02-18T00:55:58;10.60;99.90
38118;DHT22;23928;47.562;7.508;2023-02-18T00:58:24;10.50;99.90
38118;DHT22;23928;47.562;7.508;2023-02-18T01:00:50;10.60;99.90
38118;DHT22;23928;47.562;7.508;2023-02-18T01:03:16;10.50;99.90
38118;DHT22;23928;47.562;7.508;2023-02-18T01:05:43;10.50;99.90
38118;DHT22;23928;47.562;7.508;2023-02-18T01:08:09;10.50;99.90
38118;DHT22;23928;47.562;7.508;2023-02-18T01:10:36;10.50;99.90
38118;DHT22;23928;47.562;7.508;2023-02-18T01:13:02;10.50;99.90
38118;DHT22;23928;47.562;7.508;2023-02-18T01:15:30;10.40;99.90
38118;DHT22;23928;47.562;7.508;2023-02-18T01:17:56;10.50;99.90
38118;DHT22;23928;47.562;7.508;2023-02-18T01:20:22;10.50;99.90
38118;DHT22;23928;47.562;7.508;2023-02-18T01:22:47;10.60;99.90
38118;DHT22;23928;47.562;7.508;2023-02-18T01:25:14;10.50;99.90
38118;DHT22;23928;47.562;7.508;2023-02-18T01:27:40;10.50;99.90
38118;DHT22;23928;47.562;7.508;2023-02-18T01:30:07;10.50;99.90
38118;DHT22;23928;47.562;7.508;2023-02-18T01:32:33;10.50;99.90
38118;DHT22;23928;47.562;7.508;2023-02-18T01:35:03;10.50;99.90
38118;DHT22;23928;47.562;7.508;2023-02-18T01:37:29;10.60;99.90
38118;DHT22;23928;47.562;7.508;2023-02-18T01:39:55;10.60;99.90
38118;DHT22;23928;47.562;7.508;2023-02-18T01:42:24;10.70;99.90
38118;DHT22;23928;47.562;7.508;2023-02-18T01:44:50;10.60;99.90
38118;DHT22;23928;47.562;7.508;2023-02-18T01:47:17;10.60;99.90
38118;DHT22;23928;47.562;7.508;2023-02-18T01:49:45;10.60;99.90
38118;DHT22;23928;47.562;7.508;2023-02-18T01:52:17;10.60;99.90
38118;DHT22;23928;47.562;7.508;2023-02-18T01:54:46;10.60;99.90
38118;DHT22;23928;47.562;7.508;2023-02-18T01:57:20;10.60;99.90
38118;DHT22;23928;47.562;7.508;2023-02-18T01:59:53;10.50;99.90
38118;DHT22;23928;47.562;7.508;2023-02-18T02:02:23;10.50;99.90
38118;DHT22;23928;47.562;7.508;2023-02-18T02:04:49;10.50;99.90
38118;DHT22;23928;47.562;7.508;2023-02-18T02:07:17;10.30;99.90
38118;DHT22;23928;47.562;7.508;2023-02-18T02:09:44;10.40;99.90
38118;DHT22;23928;47.562;7.508;2023-02-18T02:26:12;10.20;99.90
38118;DHT22;23928;47.562;7.508;2023-02-18T02:34:33;10.10;99.90
38118;DHT22;23928;47.562;7.508;2023-02-18T02:48:23;10.20;99.90
38118;DHT22;23928;47.562;7.508;2023-02-18T02:51:06;10.10;99.90
38118;DHT22;23928;47.562;7.508;2023-02-18T02:53:35;10.20;99.90
38118;DHT22;23928;47.562;7.508;2023-02-18T02:56:01;10.10;99.90
38118;DHT22;23928;47.562;7.508;2023-02-18T02:58:27;10.30;99.90
38118;DHT22;23928;47.562;7.508;2023-02-18T03:01:10;10.20;99.90
38118;DHT22;23928;47.562;7.508;2023-02-18T03:04:08;10.20;99.90
38118;DHT22;23928;47.562;7.508;2023-02-18T03:09:46;10.20;99.90
38118;DHT22;23928;47.562;7.508;2023-02-18T03:17:54;10.20;99.90
38118;DHT22;23928;47.562;7.508;2023-02-18T03:20:24;10.10;99.90
38118;DHT22;23928;47.562;7.508;2023-02-18T03:22:51;10.30;99.90
38118;DHT22;23928;47.562;7.508;2023-02-18T03:25:18;10.30;99.90
38118;DHT22;23928;47.562;7.508;2023-02-18T03:30:17;10.20;99.90
38118;DHT22;23928;47.562;7.508;2023-02-18T03:32:45;10.20;99.90
38118;DHT22;23928;47.562;7.508;2023-02-18T03:35:14;10.00;99.90
38118;DHT22;23928;47.562;7.508;2023-02-18T03:37:56;10.10;99.90
38118;DHT22;23928;47.562;7.508;2023-02-18T03:40:29;10.10;99.90
38118;DHT22;23928;47.562;7.508;2023-02-18T03:42:56;10.10;99.90
38118;DHT22;23928;47.562;7.508;2023-02-18T03:45:23;10.20;99.90
38118;DHT22;23928;47.562;7.508;2023-02-18T03:47:48;10.20;99.90
38118;DHT22;23928;47.562;7.508;2023-02-18T03:50:14;10.10;99.90
38118;DHT22;23928;47.562;7.508;2023-02-18T03:52:40;10.20;99.90
38118;DHT22;23928;47.562;7.508;2023-02-18T03:55:06;10.20;99.90
38118;DHT22;23928;47.562;7.508;2023-02-18T03:57:32;10.00;99.90
38118;DHT22;23928;47.562;7.508;2023-02-18T03:59:57;10.00;99.90
38118;DHT22;23928;47.562;7.508;2023-02-18T04:02:23;9.90;99.90
38118;DHT22;23928;47.562;7.508;2023-02-18T04:04:48;10.00;99.90
38118;DHT22;23928;47.562;7.508;2023-02-18T04:07:14;10.00;99.90
38118;DHT22;23928;47.562;7.508;2023-02-18T04:09:40;10.00;99.90
38118;DHT22;23928;47.562;7.508;2023-02-18T04:12:05;10.00;99.90
38118;DHT22;23928;47.562;7.508;2023-02-18T04:14:31;9.90;99.90
38118;DHT22;23928;47.562;7.508;2023-02-18T04:16:57;10.00;99.90
38118;DHT22;23928;47.562;7.508;2023-02-18T04:19:22;9.90;99.90
38118;DHT22;23928;47.562;7.508;2023-02-18T04:21:48;9.90;99.90
38118;DHT22;23928;47.562;7.508;2023-02-18T04:24:13;10.00;99.90
38118;DHT22;23928;47.562;7.508;2023-02-18T04:26:39;10.00;99.90
38118;DHT22;23928;47.562;7.508;2023-02-18T04:29:05;10.10;99.90
38118;DHT22;23928;47.562;7.508;2023-02-18T04:31:30;10.10;99.90
38118;DHT22;23928;47.562;7.508;2023-02-18T04:33:56;10.00;99.90
38118;DHT22;23928;47.562;7.508;2023-02-18T04:36:22;10.10;99.90
38118;DHT22;23928;47.562;7.508;2023-02-18T04:38:47;10.00;99.90
38118;DHT22;23928;47.562;7.508;2023-02-18T04:41:13;10.00;99.90
38118;DHT22;23928;47.562;7.508;2023-02-18T04:43:38;10.10;99.90
38118;DHT22;23928;47.562;7.508;2023-02-18T04:46:04;10.00;99.90
38118;DHT22;23928;47.562;7.508;2023-02-18T04:48:30;9.90;99.90
38118;DHT22;23928;47.562;7.508;2023-02-18T04:50:55;9.90;99.90
38118;DHT22;23928;47.562;7.508;2023-02-18T04:53:21;10.10;99.90
38118;DHT22;23928;47.562;7.508;2023-02-18T04:55:50;10.00;99.90
38118;DHT22;23928;47.562;7.508;2023-02-18T04:58:17;10.00;99.90
38118;DHT22;23928;47.562;7.508;2023-02-18T05:00:43;10.10;99.90
38118;DHT22;23928;47.562;7.508;2023-02-18T05:03:08;10.10;99.90
38118;DHT22;23928;47.562;7.508;2023-02-18T05:05:34;10.20;99.90
38118;DHT22;23928;47.562;7.508;2023-02-18T05:08:00;10.30;99.90
38118;DHT22;23928;47.562;7.508;2023-02-18T05:10:26;10.30;99.90
38118;DHT22;23928;47.562;7.508;2023-02-18T05:12:51;10.30;99.90
38118;DHT22;23928;47.562;7.508;2023-02-18T05:15:17;10.30;99.90
38118;DHT22;23928;47.562;7.508;2023-02-18T05:17:43;10.30;99.90
38118;DHT22;23928;47.562;7.508;2023-02-18T05:20:10;10.30;99.90
38118;DHT22;23928;47.562;7.508;2023-02-18T05:22:37;10.40;99.90
38118;DHT22;23928;47.562;7.508;2023-02-18T05:25:03;10.30;99.90
38118;DHT22;23928;47.562;7.508;2023-02-18T05:27:29;10.30;99.90
38118;DHT22;23928;47.562;7.508;2023-02-18T05:29:54;10.30;99.90
38118;DHT22;23928;47.562;7.508;2023-02-18T05:32:21;10.40;99.90
38118;DHT22;23928;47.562;7.508;2023-02-18T05:34:46;10.40;99.90
38118;DHT22;23928;47.562;7.508;2023-02-18T05:37:12;10.40;99.90
38118;DHT22;23928;47.562;7.508;2023-02-18T05:39:39;10.30;99.90
38118;DHT22;23928;47.562;7.508;2023-02-18T05:42:05;10.40;99.90
38118;DHT22;23928;47.562;7.508;2023-02-18T05:44:30;10.40;99.90
38118;DHT22;23928;47.562;7.508;2023-02-18T05:47:06;10.30;99.90
38118;DHT22;23928;47.562;7.508;2023-02-18T05:49:33;10.30;99.90
38118;DHT22;23928;47.562;7.508;2023-02-18T05:51:59;10.40;99.90
38118;DHT22;23928;47.562;7.508;2023-02-18T05:54:26;10.50;99.90
38118;DHT22;23928;47.562;7.508;2023-02-18T05:56:51;10.30;99.90
38118;DHT22;23928;47.562;7.508;2023-02-18T05:59:17;10.50;99.90
38118;DHT22;23928;47.562;7.508;2023-02-18T06:01:44;10.40;99.90
38118;DHT22;23928;47.562;7.508;2023-02-18T06:04:10;10.40;99.90
38118;DHT22;23928;47.562;7.508;2023-02-18T06:06:35;10.40;99.90
38118;DHT22;23928;47.562;7.508;2023-02-18T06:09:01;10.40;99.90
38118;DHT22;23928;47.562;7.508;2023-02-18T06:11:27;10.40;99.90
38118;DHT22;23928;47.562;7.508;2023-02-18T06:13:52;10.60;99.90
38118;DHT22;23928;47.562;7.508;2023-02-18T06:16:18;10.50;99.90
38118;DHT22;23928;47.562;7.508;2023-02-18T06:18:44;10.50;99.90
38118;DHT22;23928;47.562;7.508;2023-02-18T06:21:09;10.60;99.90
38118;DHT22;23928;47.562;7.508;2023-02-18T06:23:35;10.60;99.90
38118;DHT22;23928;47.562;7.508;2023-02-18T06:26:00;10.60;99.90
38118;DHT22;23928;47.562;7.508;2023-02-18T06:28:26;10.50;99.90
38118;DHT22;23928;47.562;7.508;2023-02-18T06:30:52;10.60;99.90
38118;DHT22;23928;47.562;7.508;2023-02-18T06:33:17;10.70;99.90
38118;DHT22;23928;47.562;7.508;2023-02-18T06:35:53;10.70;99.90
38118;DHT22;23928;47.562;7.508;2023-02-18T06:38:18;10.70;99.90
38118;DHT22;23928;47.562;7.508;2023-02-18T06:40:46;10.60;99.90
38118;DHT22;23928;47.562;7.508;2023-02-18T06:43:12;10.60;99.90
38118;DHT22;23928;47.562;7.508;2023-02-18T06:45:38;10.60;99.90
38118;DHT22;23928;47.562;7.508;2023-02-18T06:48:04;10.70;99.90
38118;DHT22;23928;47.562;7.508;2023-02-18T06:50:30;10.70;99.90
38118;DHT22;23928;47.562;7.508;2023-02-18T06:52:55;10.80;99.90
38118;DHT22;23928;47.562;7.508;2023-02-18T06:55:21;10.80;99.90
38118;DHT22;23928;47.562;7.508;2023-02-18T06:57:47;10.80;99.90
38118;DHT22;23928;47.562;7.508;2023-02-18T07:00:13;10.80;99.90
38118;DHT22;23928;47.562;7.508;2023-02-18T07:02:39;10.70;99.90
38118;DHT22;23928;47.562;7.508;2023-02-18T07:05:05;10.80;99.90
38118;DHT22;23928;47.562;7.508;2023-02-18T07:07:30;10.80;99.90
38118;DHT22;23928;47.562;7.508;2023-02-18T07:09:56;10.90;99.90
38118;DHT22;23928;47.562;7.508;2023-02-18T07:12:22;10.80;99.90
38118;DHT22;23928;47.562;7.508;2023-02-18T07:14:47;10.80;99.90
38118;DHT22;23928;47.562;7.508;2023-02-18T07:17:13;10.80;99.90
38118;DHT22;23928;47.562;7.508;2023-02-18T07:19:39;10.90;99.90
38118;DHT22;23928;47.562;7.508;2023-02-18T07:22:05;11.10;99.90
38118;DHT22;23928;47.562;7.508;2023-02-18T07:24:30;11.10;99.90
38118;DHT22;23928;47.562;7.508;2023-02-18T07:26:56;11.10;99.90
38118;DHT22;23928;47.562;7.508;2023-02-18T07:29:22;11.10;99.90
38118;DHT22;23928;47.562;7.508;2023-02-18T07:31:47;11.20;99.90
38118;DHT22;23928;47.562;7.508;2023-02-18T07:34:13;11.20;99.90
38118;DHT22;23928;47.562;7.508;2023-02-18T07:36:38;11.20;99.90
38118;DHT22;23928;47.562;7.508;2023-02-18T07:39:04;11.20;99.90
38118;DHT22;23928;47.562;7.508;2023-02-18T07:41:30;11.30;99.90
38118;DHT22;23928;47.562;7.508;2023-02-18T07:43:55;11.50;99.90
38118;DHT22;23928;47.562;7.508;2023-02-18T07:46:21;11.40;99.90
38118;DHT22;23928;47.562;7.508;2023-02-18T07:48:46;11.50;99.90
38118;DHT22;23928;47.562;7.508;2023-02-18T07:51:12;11.50;99.90
38118;DHT22;23928;47.562;7.508;2023-02-18T07:53:38;11.60;99.90
38118;DHT22;23928;47.562;7.508;2023-02-18T07:56:05;11.60;99.90
38118;DHT22;23928;47.562;7.508;2023-02-18T07:58:33;11.70;99.90
38118;DHT22;23928;47.562;7.508;2023-02-18T08:01:02;11.60;99.90
38118;DHT22;23928;47.562;7.508;2023-02-18T08:03:29;11.70;99.90
38118;DHT22;23928;47.562;7.508;2023-02-18T08:05:56;11.60;99.90
38118;DHT22;23928;47.562;7.508;2023-02-18T08:08:24;11.70;99.90
38118;DHT22;23928;47.562;7.508;2023-02-18T08:10:51;11.70;99.90
38118;DHT22;23928;47.562;7.508;2023-02-18T08:13:17;11.70;99.90
38118;DHT22;23928;47.562;7.508;2023-02-18T08:15:43;11.70;99.90
38118;DHT22;23928;47.562;7.508;2023-02-18T08:18:16;11.80;99.90
38118;DHT22;23928;47.562;7.508;2023-02-18T08:20:41;11.90;99.90
38118;DHT22;23928;47.562;7.508;2023-02-18T08:23:08;11.90;99.90
38118;DHT22;23928;47.562;7.508;2023-02-18T08:25:34;11.90;99.90
38118;DHT22;23928;47.562;7.508;2023-02-18T08:28:00;12.00;99.90
38118;DHT22;23928;47.562;7.508;2023-02-18T08:30:26;12.00;99.90
38118;DHT22;23928;47.562;7.508;2023-02-18T08:32:51;12.20;99.90
38118;DHT22;23928;47.562;7.508;2023-02-18T08:35:17;12.20;99.90
38118;DHT22;23928;47.562;7.508;2023-02-18T08:37:43;12.20;99.90
38118;DHT22;23928;47.562;7.508;2023-02-18T08:40:11;12.40;99.90
38118;DHT22;23928;47.562;7.508;2023-02-18T08:42:36;12.50;99.90
38118;DHT22;23928;47.562;7.508;2023-02-18T08:45:03;12.50;99.90
38118;DHT22;23928;47.562;7.508;2023-02-18T08:47:28;12.60;99.90
38118;DHT22;23928;47.562;7.508;2023-02-18T08:49:54;12.70;99.90
38118;DHT22;23928;47.562;7.508;2023-02-18T08:52:20;12.70;99.90
38118;DHT22;23928;47.562;7.508;2023-02-18T08:54:46;12.70;99.90
38118;DHT22;23928;47.562;7.508;2023-02-18T08:57:12;12.70;99.90
38118;DHT22;23928;47.562;7.508;2023-02-18T08:59:37;12.70;99.90
38118;DHT22;23928;47.562;7.508;2023-02-18T09:02:03;12.70;99.90
38118;DHT22;23928;47.562;7.508;2023-02-18T09:04:29;12.70;99.90
38118;DHT22;23928;47.562;7.508;2023-02-18T09:06:54;12.70;99.90
38118;DHT22;23928;47.562;7.508;2023-02-18T09:09:20;12.80;99.90
38118;DHT22;23928;47.562;7.508;2023-02-18T09:11:46;12.70;99.90
38118;DHT22;23928;47.562;7.508;2023-02-18T09:14:11;12.70;99.90
38118;DHT22;23928;47.562;7.508;2023-02-18T09:16:38;12.80;99.90
38118;DHT22;23928;47.562;7.508;2023-02-18T09:19:04;12.90;99.90
38118;DHT22;23928;47.562;7.508;2023-02-18T09:21:31;12.80;99.90
38118;DHT22;23928;47.562;7.508;2023-02-18T09:23:57;12.90;99.90
38118;DHT22;23928;47.562;7.508;2023-02-18T09:26:23;12.90;99.90
38118;DHT22;23928;47.562;7.508;2023-02-18T09:28:51;12.80;99.90
38118;DHT22;23928;47.562;7.508;2023-02-18T09:31:19;12.80;99.90
38118;DHT22;23928;47.562;7.508;2023-02-18T09:33:50;12.80;99.90
38118;DHT22;23928;47.562;7.508;2023-02-18T09:36:17;12.80;99.90
38118;DHT22;23928;47.562;7.508;2023-02-18T09:38:43;12.90;99.90
38118;DHT22;23928;47.562;7.508;2023-02-18T09:41:27;12.90;99.90
38118;DHT22;23928;47.562;7.508;2023-02-18T09:44:01;13.00;99.90
38118;DHT22;23928;47.562;7.508;2023-02-18T09:46:33;13.00;99.90
38118;DHT22;23928;47.562;7.508;2023-02-18T09:49:06;13.00;99.90
38118;DHT22;23928;47.562;7.508;2023-02-18T09:51:37;13.00;99.90
38118;DHT22;23928;47.562;7.508;2023-02-18T09:54:02;13.00;99.90
38118;DHT22;23928;47.562;7.508;2023-02-18T09:56:31;13.00;99.90
38118;DHT22;23928;47.562;7.508;2023-02-18T09:59:02;12.90;99.90
38118;DHT22;23928;47.562;7.508;2023-02-18T10:01:35;12.90;99.90
38118;DHT22;23928;47.562;7.508;2023-02-18T10:04:26;12.90;99.90
38118;DHT22;23928;47.562;7.508;2023-02-18T10:06:55;12.90;99.90
38118;DHT22;23928;47.562;7.508;2023-02-18T10:09:25;12.90;99.90
38118;DHT22;23928;47.562;7.508;2023-02-18T10:12:23;13.00;99.90
38118;DHT22;23928;47.562;7.508;2023-02-18T10:15:00;13.00;99.90
38118;DHT22;23928;47.562;7.508;2023-02-18T10:17:28;13.00;99.90
38118;DHT22;23928;47.562;7.508;2023-02-18T10:19:56;12.90;99.90
38118;DHT22;23928;47.562;7.508;2023-02-18T10:22:24;12.80;99.90
38118;DHT22;23928;47.562;7.508;2023-02-18T10:24:59;13.00;99.90
38118;DHT22;23928;47.562;7.508;2023-02-18T10:27:36;13.00;99.90
38118;DHT22;23928;47.562;7.508;2023-02-18T10:32:43;13.00;99.90
38118;DHT22;23928;47.562;7.508;2023-02-18T10:40:45;13.00;99.90
38118;DHT22;23928;47.562;7.508;2023-02-18T10:43:31;13.10;99.90
38118;DHT22;23928;47.562;7.508;2023-02-18T10:51:33;13.20;99.90
38118;DHT22;23928;47.562;7.508;2023-02-18T10:54:00;13.30;99.90
38118;DHT22;23928;47.562;7.508;2023-02-18T10:56:40;13.40;99.90
38118;DHT22;23928;47.562;7.508;2023-02-18T10:59:24;13.40;99.90
38118;DHT22;23928;47.562;7.508;2023-02-18T11:01:57;13.40;99.90
38118;DHT22;23928;47.562;7.508;2023-02-18T11:04:39;13.50;99.90
38118;DHT22;23928;47.562;7.508;2023-02-18T11:07:24;13.50;99.90
38118;DHT22;23928;47.562;7.508;2023-02-18T11:09:56;13.60;99.90
38118;DHT22;23928;47.562;7.508;2023-02-18T11:12:32;13.50;99.90
38118;DHT22;23928;47.562;7.508;2023-02-18T11:17:32;13.80;99.90
38118;DHT22;23928;47.562;7.508;2023-02-18T11:20:00;13.90;99.90
38118;DHT22;23928;47.562;7.508;2023-02-18T11:22:35;13.80;99.90
38118;DHT22;23928;47.562;7.508;2023-02-18T11:25:19;14.00;99.90
38118;DHT22;23928;47.562;7.508;2023-02-18T11:27:59;13.90;99.90
38118;DHT22;23928;47.562;7.508;2023-02-18T11:30:43;13.90;99.90
38118;DHT22;23928;47.562;7.508;2023-02-18T11:35:56;14.20;99.90
38118;DHT22;23928;47.562;7.508;2023-02-18T11:38:29;14.30;99.90
38118;DHT22;23928;47.562;7.508;2023-02-18T11:41:14;14.40;99.90
38118;DHT22;23928;47.562;7.508;2023-02-18T11:43:42;14.30;99.90
38118;DHT22;23928;47.562;7.508;2023-02-18T11:46:13;14.20;99.90
38118;DHT22;23928;47.562;7.508;2023-02-18T11:48:39;14.30;99.90
38118;DHT22;23928;47.562;7.508;2023-02-18T11:51:09;14.30;99.90
38118;DHT22;23928;47.562;7.508;2023-02-18T11:56:18;14.50;99.90
38118;DHT22;23928;47.562;7.508;2023-02-18T11:58:45;14.50;99.90
38118;DHT22;23928;47.562;7.508;2023-02-18T12:01:23;14.40;99.90
38118;DHT22;23928;47.562;7.508;2023-02-18T12:03:57;14.60;99.90
38118;DHT22;23928;47.562;7.508;2023-02-18T12:06:41;14.50;99.90
38118;DHT22;23928;47.562;7.508;2023-02-18T12:09:39;14.50;99.90
38118;DHT22;23928;47.562;7.508;2023-02-18T12:12:12;14.60;99.90
38118;DHT22;23928;47.562;7.508;2023-02-18T12:14:38;14.80;99.90
38118;DHT22;23928;47.562;7.508;2023-02-18T12:22:45;14.60;99.90
38118;DHT22;23928;47.562;7.508;2023-02-18T12:25:26;14.80;99.90
38118;DHT22;23928;47.562;7.508;2023-02-18T12:39:46;14.80;99.90
38118;DHT22;23928;47.562;7.508;2023-02-18T12:48:29;14.50;99.90
38118;DHT22;23928;47.562;7.508;2023-02-18T12:51:20;14.50;99.90
38118;DHT22;23928;47.562;7.508;2023-02-18T12:59:24;14.70;99.90
38118;DHT22;23928;47.562;7.508;2023-02-18T13:12:59;14.50;99.90
38118;DHT22;23928;47.562;7.508;2023-02-18T13:15:38;14.50;99.90
38118;DHT22;23928;47.562;7.508;2023-02-18T13:18:10;14.30;99.90
38118;DHT22;23928;47.562;7.508;2023-02-18T13:20:43;14.20;99.90
38118;DHT22;23928;47.562;7.508;2023-02-18T13:23:20;14.20;99.90
38118;DHT22;23928;47.562;7.508;2023-02-18T13:25:48;14.30;99.90
38118;DHT22;23928;47.562;7.508;2023-02-18T13:34:23;14.40;99.90
38118;DHT22;23928;47.562;7.508;2023-02-18T13:37:44;14.50;99.90
38118;DHT22;23928;47.562;7.508;2023-02-18T13:40:13;14.80;99.90
38118;DHT22;23928;47.562;7.508;2023-02-18T13:42:41;15.00;99.90
38118;DHT22;23928;47.562;7.508;2023-02-18T13:45:26;15.00;99.90
38118;DHT22;23928;47.562;7.508;2023-02-18T13:47:53;14.90;99.90
38118;DHT22;23928;47.562;7.508;2023-02-18T13:52:52;14.80;99.90
38118;DHT22;23928;47.562;7.508;2023-02-18T13:55:25;14.80;99.90
38118;DHT22;23928;47.562;7.508;2023-02-18T13:57:54;14.80;99.90
38118;DHT22;23928;47.562;7.508;2023-02-18T14:00:23;14.70;99.90
38118;DHT22;23928;47.562;7.508;2023-02-18T14:03:18;14.70;99.90
38118;DHT22;23928;47.562;7.508;2023-02-18T14:05:44;14.70;99.90
38118;DHT22;23928;47.562;7.508;2023-02-18T14:08:36;14.80;99.90
38118;DHT22;23928;47.562;7.508;2023-02-18T14:14:15;14.90;99.90
38118;DHT22;23928;47.562;7.508;2023-02-18T14:22:45;14.50;99.90
38118;DHT22;23928;47.562;7.508;2023-02-18T14:25:21;14.60;99.90
38118;DHT22;23928;47.562;7.508;2023-02-18T14:27:52;14.40;99.90
38118;DHT22;23928;47.562;7.508;2023-02-18T14:30:19;14.50;99.90
38118;DHT22;23928;47.562;7.508;2023-02-18T14:32:50;14.40;99.90
38118;DHT22;23928;47.562;7.508;2023-02-18T14:51:47;14.10;99.90
38118;DHT22;23928;47.562;7.508;2023-02-18T14:54:16;14.00;99.90
38118;DHT22;23928;47.562;7.508;2023-02-18T14:57:07;14.10;99.90
38118;DHT22;23928;47.562;7.508;2023-02-18T14:59:38;14.10;99.90
38118;DHT22;23928;47.562;7.508;2023-02-18T15:02:18;14.00;99.90
38118;DHT22;23928;47.562;7.508;2023-02-18T15:04:44;14.00;99.90
38118;DHT22;23928;47.562;7.508;2023-02-18T15:07:10;14.00;99.90
38118;DHT22;23928;47.562;7.508;2023-02-18T15:09:47;14.00;99.90
38118;DHT22;23928;47.562;7.508;2023-02-18T15:12:16;13.90;99.90
38118;DHT22;23928;47.562;7.508;2023-02-18T15:14:44;13.90;99.90
38118;DHT22;23928;47.562;7.508;2023-02-18T15:17:18;13.90;99.90
38118;DHT22;23928;47.562;7.508;2023-02-18T15:19:51;14.00;99.90
38118;DHT22;23928;47.562;7.508;2023-02-18T15:22:20;14.10;99.90
38118;DHT22;23928;47.562;7.508;2023-02-18T15:24:47;14.00;99.90
38118;DHT22;23928;47.562;7.508;2023-02-18T15:27:31;14.00;99.90
38118;DHT22;23928;47.562;7.508;2023-02-18T15:30:19;13.90;99.90
38118;DHT22;23928;47.562;7.508;2023-02-18T15:32:50;13.90;99.90
38118;DHT22;23928;47.562;7.508;2023-02-18T15:35:18;13.80;99.90
38118;DHT22;23928;47.562;7.508;2023-02-18T15:37:46;13.70;99.90
38118;DHT22;23928;47.562;7.508;2023-02-18T15:40:16;13.80;99.90
38118;DHT22;23928;47.562;7.508;2023-02-18T15:42:45;13.80;99.90
38118;DHT22;23928;47.562;7.508;2023-02-18T15:45:23;13.70;99.90
38118;DHT22;23928;47.562;7.508;2023-02-18T15:47:53;13.60;99.90
38118;DHT22;23928;47.562;7.508;2023-02-18T15:50:36;13.70;99.90
38118;DHT22;23928;47.562;7.508;2023-02-18T15:53:08;13.70;99.90
38118;DHT22;23928;47.562;7.508;2023-02-18T15:55:41;13.60;99.90
38118;DHT22;23928;47.562;7.508;2023-02-18T15:58:15;13.60;99.90
38118;DHT22;23928;47.562;7.508;2023-02-18T16:00:48;13.50;99.90
38118;DHT22;23928;47.562;7.508;2023-02-18T16:03:18;13.40;99.90
38118;DHT22;23928;47.562;7.508;2023-02-18T16:05:44;13.40;99.90
38118;DHT22;23928;47.562;7.508;2023-02-18T16:08:23;13.40;99.90
38118;DHT22;23928;47.562;7.508;2023-02-18T16:10:55;13.30;99.90
38118;DHT22;23928;47.562;7.508;2023-02-18T16:13:22;13.20;99.90
38118;DHT22;23928;47.562;7.508;2023-02-18T16:15:49;13.20;99.90
38118;DHT22;23928;47.562;7.508;2023-02-18T16:18:27;13.20;99.90
38118;DHT22;23928;47.562;7.508;2023-02-18T16:20:59;13.10;99.90
38118;DHT22;23928;47.562;7.508;2023-02-18T16:23:40;12.90;99.90
38118;DHT22;23928;47.562;7.508;2023-02-18T16:26:10;13.00;99.90
38118;DHT22;23928;47.562;7.508;2023-02-18T16:28:36;12.90;99.90
38118;DHT22;23928;47.562;7.508;2023-02-18T16:31:01;12.90;99.90
38118;DHT22;23928;47.562;7.508;2023-02-18T16:33:27;12.70;99.90
38118;DHT22;23928;47.562;7.508;2023-02-18T16:35:53;12.70;99.90
38118;DHT22;23928;47.562;7.508;2023-02-18T16:38:23;12.60;99.90
38118;DHT22;23928;47.562;7.508;2023-02-18T16:40:50;12.50;99.90
38118;DHT22;23928;47.562;7.508;2023-02-18T16:43:21;12.50;99.90
38118;DHT22;23928;47.562;7.508;2023-02-18T16:45:56;12.30;99.90
38118;DHT22;23928;47.562;7.508;2023-02-18T16:48:31;12.30;99.90
38118;DHT22;23928;47.562;7.508;2023-02-18T16:51:10;12.20;99.90
38118;DHT22;23928;47.562;7.508;2023-02-18T16:53:38;12.10;99.90
38118;DHT22;23928;47.562;7.508;2023-02-18T16:56:05;12.00;99.90
38118;DHT22;23928;47.562;7.508;2023-02-18T16:58:30;11.80;99.90
38118;DHT22;23928;47.562;7.508;2023-02-18T17:00:56;11.70;99.90
38118;DHT22;23928;47.562;7.508;2023-02-18T17:03:22;11.70;99.90
38118;DHT22;23928;47.562;7.508;2023-02-18T17:05:48;11.60;99.90
38118;DHT22;23928;47.562;7.508;2023-02-18T17:08:17;11.60;99.90
38118;DHT22;23928;47.562;7.508;2023-02-18T17:10:46;11.60;99.90
38118;DHT22;23928;47.562;7.508;2023-02-18T17:13:14;11.70;99.90
38118;DHT22;23928;47.562;7.508;2023-02-18T17:15:41;11.70;99.90
38118;DHT22;23928;47.562;7.508;2023-02-18T17:18:08;11.70;99.90
38118;DHT22;23928;47.562;7.508;2023-02-18T17:20:33;11.70;99.90
38118;DHT22;23928;47.562;7.508;2023-02-18T17:22:59;11.60;99.90
38118;DHT22;23928;47.562;7.508;2023-02-18T17:25:31;11.60;99.90
38118;DHT22;23928;47.562;7.508;2023-02-18T17:27:57;11.50;99.90
38118;DHT22;23928;47.562;7.508;2023-02-18T17:30:23;11.40;99.90
38118;DHT22;23928;47.562;7.508;2023-02-18T17:32:49;11.50;99.90
38118;DHT22;23928;47.562;7.508;2023-02-18T17:35:16;11.40;99.90
38118;DHT22;23928;47.562;7.508;2023-02-18T17:37:42;11.30;99.90
38118;DHT22;23928;47.562;7.508;2023-02-18T17:40:13;11.30;99.90
38118;DHT22;23928;47.562;7.508;2023-02-18T17:42:38;11.30;99.90
38118;DHT22;23928;47.562;7.508;2023-02-18T17:45:18;11.20;99.90
38118;DHT22;23928;47.562;7.508;2023-02-18T17:47:45;11.10;99.90
38118;DHT22;23928;47.562;7.508;2023-02-18T17:50:11;11.10;99.90
38118;DHT22;23928;47.562;7.508;2023-02-18T17:52:37;10.90;99.90
38118;DHT22;23928;47.562;7.508;2023-02-18T17:55:17;11.00;99.90
38118;DHT22;23928;47.562;7.508;2023-02-18T17:57:43;11.00;99.90
38118;DHT22;23928;47.562;7.508;2023-02-18T18:00:12;11.10;99.90
38118;DHT22;23928;47.562;7.508;2023-02-18T18:02:38;11.10;99.90